sensor_id;sensor_type;location;lat;lon;timestamp;temperature;humidity
23081;DHT22;11708;50.570;8.532;2023-05-10T00:00:50;14.30;99.90
23081;DHT22;11708;50.570;8.532;2023-05-10T00:03:16;14.30;99.90
23081;DHT22;11708;50.570;8.532;2023-05-10T00:05:42;14.20;99.90
23081;DHT22;11708;50.570;8.532;2023-05-10T00:08:07;14.20;99.90
23081;DHT22;11708;50.570;8.532;2023-05-10T00:10:33;14.10;99.90
23081;DHT22;11708;50.570;8.532;2023-05-10T00:12:59;14.00;99.90
23081;DHT22;11708;50.570;8.532;2023-05-10T00:15:24;13.70;99.90
23081;DHT22;11708;50.570;8.532;2023-05-10T00:17:50;13.90;99.90
23081;DHT22;11708;50.570;8.532;2023-05-10T00:20:15;14.30;99.90
23081;DHT22;11708;50.570;8.532;2023-05-10T00:22:41;13.90;99.90
23081;DHT22;11708;50.570;8.532;2023-05-10T00:25:07;13.80;99.90
23081;DHT22;11708;50.570;8.532;2023-05-10T00:27:33;13.80;99.90
23081;DHT22;11708;50.570;8.532;2023-05-10T00:29:58;13.70;99.90
23081;DHT22;11708;50.570;8.532;2023-05-10T00:32:24;13.70;99.90
23081;DHT22;11708;50.570;8.532;2023-05-10T00:34:49;13.70;99.90
23081;DHT22;11708;50.570;8.532;2023-05-10T00:37:15;13.60;99.90
23081;DHT22;11708;50.570;8.532;2023-05-10T00:39:41;13.50;99.90
23081;DHT22;11708;50.570;8.532;2023-05-10T00:42:06;13.50;99.90
23081;DHT22;11708;50.570;8.532;2023-05-10T00:44:32;13.50;99.90
23081;DHT22;11708;50.570;8.532;2023-05-10T00:46:58;13.50;99.90
23081;DHT22;11708;50.570;8.532;2023-05-10T00:49:24;13.40;99.90
23081;DHT22;11708;50.570;8.532;2023-05-10T00:51:50;13.40;99.90
23081;DHT22;11708;50.570;8.532;2023-05-10T00:54:16;13.40;99.90
23081;DHT22;11708;50.570;8.532;2023-05-10T00:56:42;13.40;99.90
23081;DHT22;11708;50.570;8.532;2023-05-10T00:59:14;13.40;99.90
23081;DHT22;11708;50.570;8.532;2023-05-10T01:01:39;13.30;99.90
23081;DHT22;11708;50.570;8.532;2023-05-10T01:04:05;13.30;99.90
23081;DHT22;11708;50.570;8.532;2023-05-10T01:06:31;13.30;99.90
23081;DHT22;11708;50.570;8.532;2023-05-10T01:08:57;13.30;99.90
23081;DHT22;11708;50.570;8.532;2023-05-10T01:11:23;13.20;99.90
23081;DHT22;11708;50.570;8.532;2023-05-10T01:13:54;13.20;99.90
23081;DHT22;11708;50.570;8.532;2023-05-10T01:16:21;13.20;99.90
23081;DHT22;11708;50.570;8.532;2023-05-10T01:18:47;13.20;99.90
23081;DHT22;11708;50.570;8.532;2023-05-10T01:21:38;13.10;99.90
23081;DHT22;11708;50.570;8.532;2023-05-10T01:30:40;13.10;99.90
23081;DHT22;11708;50.570;8.532;2023-05-10T01:33:26;13.10;99.90
23081;DHT22;11708;50.570;8.532;2023-05-10T01:38:43;13.10;99.90
23081;DHT22;11708;50.570;8.532;2023-05-10T01:43:53;13.10;99.90
23081;DHT22;11708;50.570;8.532;2023-05-10T01:46:28;13.00;99.90
23081;DHT22;11708;50.570;8.532;2023-05-10T01:48:57;13.10;99.90
23081;DHT22;11708;50.570;8.532;2023-05-10T01:51:27;13.00;99.90
23081;DHT22;11708;50.570;8.532;2023-05-10T01:53:59;13.10;99.90
23081;DHT22;11708;50.570;8.532;2023-05-10T01:56:26;13.00;99.90
23081;DHT22;11708;50.570;8.532;2023-05-10T01:58:54;13.00;99.90
23081;DHT22;11708;50.570;8.532;2023-05-10T02:01:21;13.00;99.90
23081;DHT22;11708;50.570;8.532;2023-05-10T02:03:49;13.00;99.90
23081;DHT22;11708;50.570;8.532;2023-05-10T02:06:16;13.00;99.90
23081;DHT22;11708;50.570;8.532;2023-05-10T02:08:45;13.00;99.90
23081;DHT22;11708;50.570;8.532;2023-05-10T02:11:13;13.00;99.90
23081;DHT22;11708;50.570;8.532;2023-05-10T02:13:39;13.00;99.90
23081;DHT22;11708;50.570;8.532;2023-05-10T02:16:06;13.00;99.90
23081;DHT22;11708;50.570;8.532;2023-05-10T02:18:33;12.90;99.90
23081;DHT22;11708;50.570;8.532;2023-05-10T02:21:01;13.00;99.90
23081;DHT22;11708;50.570;8.532;2023-05-10T02:23:28;13.00;99.90
23081;DHT22;11708;50.570;8.532;2023-05-10T02:25:55;12.90;99.90
23081;DHT22;11708;50.570;8.532;2023-05-10T02:28:23;12.90;99.90
23081;DHT22;11708;50.570;8.532;2023-05-10T02:30:51;12.90;99.90
23081;DHT22;11708;50.570;8.532;2023-05-10T02:33:18;12.90;99.90
23081;DHT22;11708;50.570;8.532;2023-05-10T02:35:45;12.90;99.90
23081;DHT22;11708;50.570;8.532;2023-05-10T02:38:11;12.90;99.90
23081;DHT22;11708;50.570;8.532;2023-05-10T02:40:40;12.90;99.90
23081;DHT22;11708;50.570;8.532;2023-05-10T02:43:11;12.90;99.90
23081;DHT22;11708;50.570;8.532;2023-05-10T02:45:38;12.90;99.90
23081;DHT22;11708;50.570;8.532;2023-05-10T02:48:05;12.90;99.90
23081;DHT22;11708;50.570;8.532;2023-05-10T02:50:33;12.90;99.90
23081;DHT22;11708;50.570;8.532;2023-05-10T02:53:06;12.90;99.90
23081;DHT22;11708;50.570;8.532;2023-05-10T02:55:40;12.90;99.90
23081;DHT22;11708;50.570;8.532;2023-05-10T02:58:06;12.90;99.90
23081;DHT22;11708;50.570;8.532;2023-05-10T03:00:32;12.90;99.90
23081;DHT22;11708;50.570;8.532;2023-05-10T03:02:57;12.90;99.90
23081;DHT22;11708;50.570;8.532;2023-05-10T03:05:23;12.60;99.90
23081;DHT22;11708;50.570;8.532;2023-05-10T03:07:49;12.90;99.90
23081;DHT22;11708;50.570;8.532;2023-05-10T03:10:15;12.90;99.90
23081;DHT22;11708;50.570;8.532;2023-05-10T03:13:01;12.90;99.90
23081;DHT22;11708;50.570;8.532;2023-05-10T03:18:28;12.90;99.90
23081;DHT22;11708;50.570;8.532;2023-05-10T03:21:03;12.80;99.90
23081;DHT22;11708;50.570;8.532;2023-05-10T03:23:44;12.80;99.90
23081;DHT22;11708;50.570;8.532;2023-05-10T03:26:24;12.90;99.90
23081;DHT22;11708;50.570;8.532;2023-05-10T03:28:51;12.90;99.90
23081;DHT22;11708;50.570;8.532;2023-05-10T03:31:18;12.90;99.90
23081;DHT22;11708;50.570;8.532;2023-05-10T03:33:51;12.80;99.90
23081;DHT22;11708;50.570;8.532;2023-05-10T03:36:17;12.80;99.90
23081;DHT22;11708;50.570;8.532;2023-05-10T03:38:43;12.90;99.90
23081;DHT22;11708;50.570;8.532;2023-05-10T03:41:08;12.80;99.90
23081;DHT22;11708;50.570;8.532;2023-05-10T03:43:34;12.70;99.90
23081;DHT22;11708;50.570;8.532;2023-05-10T03:46:04;12.80;99.90
23081;DHT22;11708;50.570;8.532;2023-05-10T03:48:31;12.80;99.90
23081;DHT22;11708;50.570;8.532;2023-05-10T03:50:57;12.80;99.90
23081;DHT22;11708;50.570;8.532;2023-05-10T03:53:23;12.70;99.90
23081;DHT22;11708;50.570;8.532;2023-05-10T03:55:48;12.70;99.90
23081;DHT22;11708;50.570;8.532;2023-05-10T03:58:14;12.80;99.90
23081;DHT22;11708;50.570;8.532;2023-05-10T04:00:40;12.80;99.90
23081;DHT22;11708;50.570;8.532;2023-05-10T04:03:11;12.80;99.90
23081;DHT22;11708;50.570;8.532;2023-05-10T04:05:36;12.80;99.90
23081;DHT22;11708;50.570;8.532;2023-05-10T04:08:02;12.80;99.90
23081;DHT22;11708;50.570;8.532;2023-05-10T04:10:28;12.80;99.90
23081;DHT22;11708;50.570;8.532;2023-05-10T04:12:54;12.80;99.90
23081;DHT22;11708;50.570;8.532;2023-05-10T04:15:19;12.70;99.90
23081;DHT22;11708;50.570;8.532;2023-05-10T04:17:45;12.80;99.90
23081;DHT22;11708;50.570;8.532;2023-05-10T04:20:11;12.80;99.90
23081;DHT22;11708;50.570;8.532;2023-05-10T04:22:37;12.80;99.90
23081;DHT22;11708;50.570;8.532;2023-05-10T04:25:03;12.90;99.90
23081;DHT22;11708;50.570;8.532;2023-05-10T04:27:30;12.90;99.90
23081;DHT22;11708;50.570;8.532;2023-05-10T04:29:56;12.90;99.90
23081;DHT22;11708;50.570;8.532;2023-05-10T04:32:22;12.90;99.90
23081;DHT22;11708;50.570;8.532;2023-05-10T04:34:47;12.80;99.90
23081;DHT22;11708;50.570;8.532;2023-05-10T04:37:13;12.90;99.90
23081;DHT22;11708;50.570;8.532;2023-05-10T04:39:39;12.90;99.90
23081;DHT22;11708;50.570;8.532;2023-05-10T04:42:05;12.90;99.90
23081;DHT22;11708;50.570;8.532;2023-05-10T04:44:34;12.90;99.90
23081;DHT22;11708;50.570;8.532;2023-05-10T04:46:59;12.90;99.90
23081;DHT22;11708;50.570;8.532;2023-05-10T04:49:25;12.90;99.90
23081;DHT22;11708;50.570;8.532;2023-05-10T04:51:51;13.00;99.90
23081;DHT22;11708;50.570;8.532;2023-05-10T04:54:16;13.00;99.90
23081;DHT22;11708;50.570;8.532;2023-05-10T04:56:42;13.00;99.90
23081;DHT22;11708;50.570;8.532;2023-05-10T04:59:07;13.00;99.90
23081;DHT22;11708;50.570;8.532;2023-05-10T05:01:33;13.00;99.90
23081;DHT22;11708;50.570;8.532;2023-05-10T05:03:59;13.10;99.90
23081;DHT22;11708;50.570;8.532;2023-05-10T05:06:24;13.10;99.90
23081;DHT22;11708;50.570;8.532;2023-05-10T05:08:50;13.10;99.90
23081;DHT22;11708;50.570;8.532;2023-05-10T05:11:17;13.20;99.90
23081;DHT22;11708;50.570;8.532;2023-05-10T05:13:42;13.10;99.90
23081;DHT22;11708;50.570;8.532;2023-05-10T05:16:08;13.10;99.90
23081;DHT22;11708;50.570;8.532;2023-05-10T05:18:34;13.10;99.90
23081;DHT22;11708;50.570;8.532;2023-05-10T05:21:00;13.10;99.90
23081;DHT22;11708;50.570;8.532;2023-05-10T05:23:26;13.10;99.90
23081;DHT22;11708;50.570;8.532;2023-05-10T05:25:52;13.20;99.90
23081;DHT22;11708;50.570;8.532;2023-05-10T05:28:19;13.20;99.90
23081;DHT22;11708;50.570;8.532;2023-05-10T05:30:45;13.30;99.90
23081;DHT22;11708;50.570;8.532;2023-05-10T05:33:12;13.30;99.90
23081;DHT22;11708;50.570;8.532;2023-05-10T05:35:38;13.40;99.90
23081;DHT22;11708;50.570;8.532;2023-05-10T05:38:03;13.30;99.90
23081;DHT22;11708;50.570;8.532;2023-05-10T05:40:29;13.40;99.90
23081;DHT22;11708;50.570;8.532;2023-05-10T05:42:54;13.40;99.90
23081;DHT22;11708;50.570;8.532;2023-05-10T05:45:20;13.70;99.90
23081;DHT22;11708;50.570;8.532;2023-05-10T05:47:46;13.40;99.90
23081;DHT22;11708;50.570;8.532;2023-05-10T05:50:12;13.40;99.90
23081;DHT22;11708;50.570;8.532;2023-05-10T05:52:37;13.50;99.90
23081;DHT22;11708;50.570;8.532;2023-05-10T05:55:03;13.50;99.90
23081;DHT22;11708;50.570;8.532;2023-05-10T05:57:29;13.50;99.90
23081;DHT22;11708;50.570;8.532;2023-05-10T05:59:55;13.50;99.90
23081;DHT22;11708;50.570;8.532;2023-05-10T06:02:20;13.50;99.90
23081;DHT22;11708;50.570;8.532;2023-05-10T06:04:46;13.50;99.90
23081;DHT22;11708;50.570;8.532;2023-05-10T06:07:11;13.60;99.90
23081;DHT22;11708;50.570;8.532;2023-05-10T06:09:37;13.60;99.90
23081;DHT22;11708;50.570;8.532;2023-05-10T06:12:03;13.60;99.90
23081;DHT22;11708;50.570;8.532;2023-05-10T06:14:28;13.60;99.90
23081;DHT22;11708;50.570;8.532;2023-05-10T06:16:54;13.60;99.90
23081;DHT22;11708;50.570;8.532;2023-05-10T06:19:19;13.50;99.90
23081;DHT22;11708;50.570;8.532;2023-05-10T06:21:45;13.40;99.90
23081;DHT22;11708;50.570;8.532;2023-05-10T06:24:10;13.50;99.90
23081;DHT22;11708;50.570;8.532;2023-05-10T06:26:36;13.50;99.90
23081;DHT22;11708;50.570;8.532;2023-05-10T06:29:01;13.50;99.90
23081;DHT22;11708;50.570;8.532;2023-05-10T06:31:27;13.40;99.90
23081;DHT22;11708;50.570;8.532;2023-05-10T06:33:53;13.40;99.90
23081;DHT22;11708;50.570;8.532;2023-05-10T06:36:18;13.50;99.90
23081;DHT22;11708;50.570;8.532;2023-05-10T06:38:44;13.40;99.90
23081;DHT22;11708;50.570;8.532;2023-05-10T06:41:09;13.50;99.90
23081;DHT22;11708;50.570;8.532;2023-05-10T06:43:35;13.50;99.90
23081;DHT22;11708;50.570;8.532;2023-05-10T06:46:02;13.50;99.90
23081;DHT22;11708;50.570;8.532;2023-05-10T06:48:27;13.60;99.90
23081;DHT22;11708;50.570;8.532;2023-05-10T06:50:53;13.60;99.90
23081;DHT22;11708;50.570;8.532;2023-05-10T06:53:19;13.70;99.90
23081;DHT22;11708;50.570;8.532;2023-05-10T06:55:44;13.80;99.90
23081;DHT22;11708;50.570;8.532;2023-05-10T06:58:10;13.90;99.90
23081;DHT22;11708;50.570;8.532;2023-05-10T07:00:36;13.90;99.90
23081;DHT22;11708;50.570;8.532;2023-05-10T07:03:05;14.00;99.90
23081;DHT22;11708;50.570;8.532;2023-05-10T07:05:31;14.00;99.90
23081;DHT22;11708;50.570;8.532;2023-05-10T07:07:57;14.10;99.90
23081;DHT22;11708;50.570;8.532;2023-05-10T07:10:22;14.10;99.90
23081;DHT22;11708;50.570;8.532;2023-05-10T07:12:48;14.20;99.90
23081;DHT22;11708;50.570;8.532;2023-05-10T07:15:13;14.50;99.90
23081;DHT22;11708;50.570;8.532;2023-05-10T07:17:39;14.40;99.90
23081;DHT22;11708;50.570;8.532;2023-05-10T07:20:05;14.40;99.90
23081;DHT22;11708;50.570;8.532;2023-05-10T07:22:31;14.50;99.90
23081;DHT22;11708;50.570;8.532;2023-05-10T07:24:56;14.50;99.90
23081;DHT22;11708;50.570;8.532;2023-05-10T07:27:22;14.60;99.90
23081;DHT22;11708;50.570;8.532;2023-05-10T07:29:47;14.50;99.90
23081;DHT22;11708;50.570;8.532;2023-05-10T07:32:13;14.50;99.90
23081;DHT22;11708;50.570;8.532;2023-05-10T07:34:39;14.60;99.90
23081;DHT22;11708;50.570;8.532;2023-05-10T07:37:04;14.60;99.90
23081;DHT22;11708;50.570;8.532;2023-05-10T07:39:31;14.60;99.90
23081;DHT22;11708;50.570;8.532;2023-05-10T07:41:57;14.60;99.90
23081;DHT22;11708;50.570;8.532;2023-05-10T07:44:22;14.60;99.90
23081;DHT22;11708;50.570;8.532;2023-05-10T07:46:48;14.50;99.90
23081;DHT22;11708;50.570;8.532;2023-05-10T07:49:14;14.50;99.90
23081;DHT22;11708;50.570;8.532;2023-05-10T07:51:40;14.50;99.90
23081;DHT22;11708;50.570;8.532;2023-05-10T07:54:06;14.40;99.90
23081;DHT22;11708;50.570;8.532;2023-05-10T07:56:32;14.50;99.90
23081;DHT22;11708;50.570;8.532;2023-05-10T07:59:02;14.50;99.90
23081;DHT22;11708;50.570;8.532;2023-05-10T08:01:33;14.40;99.90
23081;DHT22;11708;50.570;8.532;2023-05-10T08:03:59;14.40;99.90
23081;DHT22;11708;50.570;8.532;2023-05-10T08:06:25;14.40;99.90
23081;DHT22;11708;50.570;8.532;2023-05-10T08:08:52;14.50;99.90
23081;DHT22;11708;50.570;8.532;2023-05-10T08:11:20;14.40;99.90
23081;DHT22;11708;50.570;8.532;2023-05-10T08:13:46;14.40;99.90
23081;DHT22;11708;50.570;8.532;2023-05-10T08:16:12;14.40;99.90
23081;DHT22;11708;50.570;8.532;2023-05-10T08:18:38;14.50;99.90
23081;DHT22;11708;50.570;8.532;2023-05-10T08:21:04;14.60;99.90
23081;DHT22;11708;50.570;8.532;2023-05-10T08:23:29;14.60;99.90
23081;DHT22;11708;50.570;8.532;2023-05-10T08:25:55;14.60;99.90
23081;DHT22;11708;50.570;8.532;2023-05-10T08:28:21;14.60;99.90
23081;DHT22;11708;50.570;8.532;2023-05-10T08:30:46;14.60;99.90
23081;DHT22;11708;50.570;8.532;2023-05-10T08:33:12;14.60;99.90
23081;DHT22;11708;50.570;8.532;2023-05-10T08:35:37;14.40;99.90
23081;DHT22;11708;50.570;8.532;2023-05-10T08:38:03;14.50;99.90
23081;DHT22;11708;50.570;8.532;2023-05-10T08:40:28;14.40;99.90
23081;DHT22;11708;50.570;8.532;2023-05-10T08:42:59;14.40;99.90
23081;DHT22;11708;50.570;8.532;2023-05-10T08:45:27;14.10;99.90
23081;DHT22;11708;50.570;8.532;2023-05-10T08:47:54;14.40;99.90
23081;DHT22;11708;50.570;8.532;2023-05-10T08:50:20;14.30;99.90
23081;DHT22;11708;50.570;8.532;2023-05-10T08:52:48;14.30;99.90
23081;DHT22;11708;50.570;8.532;2023-05-10T08:55:16;13.80;99.90
23081;DHT22;11708;50.570;8.532;2023-05-10T08:57:42;14.10;99.90
23081;DHT22;11708;50.570;8.532;2023-05-10T09:00:08;14.10;99.90
23081;DHT22;11708;50.570;8.532;2023-05-10T09:02:35;14.00;99.90
23081;DHT22;11708;50.570;8.532;2023-05-10T09:05:02;13.90;99.90
23081;DHT22;11708;50.570;8.532;2023-05-10T09:07:29;13.90;99.90
23081;DHT22;11708;50.570;8.532;2023-05-10T09:09:56;13.80;99.90
23081;DHT22;11708;50.570;8.532;2023-05-10T09:12:22;13.80;99.90
23081;DHT22;11708;50.570;8.532;2023-05-10T09:14:48;13.80;99.90
23081;DHT22;11708;50.570;8.532;2023-05-10T09:17:15;13.70;99.90
23081;DHT22;11708;50.570;8.532;2023-05-10T09:19:41;13.70;99.90
23081;DHT22;11708;50.570;8.532;2023-05-10T09:22:07;13.80;99.90
23081;DHT22;11708;50.570;8.532;2023-05-10T09:24:32;13.70;99.90
23081;DHT22;11708;50.570;8.532;2023-05-10T09:26:58;13.80;99.90
23081;DHT22;11708;50.570;8.532;2023-05-10T09:29:23;13.80;99.90
23081;DHT22;11708;50.570;8.532;2023-05-10T09:31:52;13.80;99.90
23081;DHT22;11708;50.570;8.532;2023-05-10T09:34:29;13.80;99.90
23081;DHT22;11708;50.570;8.532;2023-05-10T09:36:59;13.90;99.90
23081;DHT22;11708;50.570;8.532;2023-05-10T09:39:36;13.90;99.90
23081;DHT22;11708;50.570;8.532;2023-05-10T09:42:04;14.00;99.90
23081;DHT22;11708;50.570;8.532;2023-05-10T09:44:31;14.00;99.90
23081;DHT22;11708;50.570;8.532;2023-05-10T09:46:57;14.00;99.90
23081;DHT22;11708;50.570;8.532;2023-05-10T09:49:25;14.00;99.90
23081;DHT22;11708;50.570;8.532;2023-05-10T09:52:00;14.00;99.90
23081;DHT22;11708;50.570;8.532;2023-05-10T09:54:26;14.00;99.90
23081;DHT22;11708;50.570;8.532;2023-05-10T09:56:52;14.10;99.90
23081;DHT22;11708;50.570;8.532;2023-05-10T09:59:18;14.10;99.90
23081;DHT22;11708;50.570;8.532;2023-05-10T10:01:59;14.10;99.90
23081;DHT22;11708;50.570;8.532;2023-05-10T10:04:25;14.10;99.90
23081;DHT22;11708;50.570;8.532;2023-05-10T10:07:02;14.10;99.90
23081;DHT22;11708;50.570;8.532;2023-05-10T10:09:28;14.10;99.90
23081;DHT22;11708;50.570;8.532;2023-05-10T10:11:54;14.10;99.90
23081;DHT22;11708;50.570;8.532;2023-05-10T10:14:22;14.10;99.90
23081;DHT22;11708;50.570;8.532;2023-05-10T10:16:49;14.10;99.90
23081;DHT22;11708;50.570;8.532;2023-05-10T10:19:15;14.10;99.90
23081;DHT22;11708;50.570;8.532;2023-05-10T10:21:41;14.20;99.90
23081;DHT22;11708;50.570;8.532;2023-05-10T10:24:06;14.20;99.90
23081;DHT22;11708;50.570;8.532;2023-05-10T10:26:36;14.10;99.90
23081;DHT22;11708;50.570;8.532;2023-05-10T10:31:45;14.00;99.90
23081;DHT22;11708;50.570;8.532;2023-05-10T10:34:25;14.00;99.90
23081;DHT22;11708;50.570;8.532;2023-05-10T10:36:51;14.00;99.90
23081;DHT22;11708;50.570;8.532;2023-05-10T10:39:18;14.00;99.90
23081;DHT22;11708;50.570;8.532;2023-05-10T10:41:56;14.00;99.90
23081;DHT22;11708;50.570;8.532;2023-05-10T11:02:47;14.00;99.90
23081;DHT22;11708;50.570;8.532;2023-05-10T11:07:56;14.10;99.90
23081;DHT22;11708;50.570;8.532;2023-05-10T11:10:23;14.20;99.90
23081;DHT22;11708;50.570;8.532;2023-05-10T11:13:04;14.20;99.90
23081;DHT22;11708;50.570;8.532;2023-05-10T11:17:56;14.10;99.90
23081;DHT22;11708;50.570;8.532;2023-05-10T11:20:22;14.20;99.90
23081;DHT22;11708;50.570;8.532;2023-05-10T11:22:54;14.20;99.90
23081;DHT22;11708;50.570;8.532;2023-05-10T11:25:23;14.10;99.90
23081;DHT22;11708;50.570;8.532;2023-05-10T11:27:51;14.20;99.90
23081;DHT22;11708;50.570;8.532;2023-05-10T11:30:17;14.20;99.90
23081;DHT22;11708;50.570;8.532;2023-05-10T11:32:43;14.30;99.90
23081;DHT22;11708;50.570;8.532;2023-05-10T11:35:12;14.40;99.90
23081;DHT22;11708;50.570;8.532;2023-05-10T11:37:41;14.40;99.90
23081;DHT22;11708;50.570;8.532;2023-05-10T11:40:09;14.40;99.90
23081;DHT22;11708;50.570;8.532;2023-05-10T11:42:38;14.40;99.90
23081;DHT22;11708;50.570;8.532;2023-05-10T11:45:04;14.40;99.90
23081;DHT22;11708;50.570;8.532;2023-05-10T11:47:30;14.40;99.90
23081;DHT22;11708;50.570;8.532;2023-05-10T11:49:57;14.40;99.90
23081;DHT22;11708;50.570;8.532;2023-05-10T11:52:23;14.40;99.90
23081;DHT22;11708;50.570;8.532;2023-05-10T11:54:53;14.30;99.90
23081;DHT22;11708;50.570;8.532;2023-05-10T11:57:20;14.30;99.90
23081;DHT22;11708;50.570;8.532;2023-05-10T11:59:46;14.30;99.90
23081;DHT22;11708;50.570;8.532;2023-05-10T12:02:15;14.30;99.90
23081;DHT22;11708;50.570;8.532;2023-05-10T12:04:41;14.30;99.90
23081;DHT22;11708;50.570;8.532;2023-05-10T12:07:07;14.30;99.90
23081;DHT22;11708;50.570;8.532;2023-05-10T12:09:32;14.30;99.90
23081;DHT22;11708;50.570;8.532;2023-05-10T12:11:58;14.30;99.90
23081;DHT22;11708;50.570;8.532;2023-05-10T12:14:23;14.20;99.90
23081;DHT22;11708;50.570;8.532;2023-05-10T12:16:50;14.20;99.90
23081;DHT22;11708;50.570;8.532;2023-05-10T12:19:18;14.20;99.90
23081;DHT22;11708;50.570;8.532;2023-05-10T12:21:45;14.30;99.90
23081;DHT22;11708;50.570;8.532;2023-05-10T12:24:11;14.30;99.90
23081;DHT22;11708;50.570;8.532;2023-05-10T12:26:37;14.50;99.90
23081;DHT22;11708;50.570;8.532;2023-05-10T12:29:19;14.60;99.90
23081;DHT22;11708;50.570;8.532;2023-05-10T12:32:03;14.60;99.90
23081;DHT22;11708;50.570;8.532;2023-05-10T12:34:35;14.70;99.90
23081;DHT22;11708;50.570;8.532;2023-05-10T12:37:02;14.70;99.90
23081;DHT22;11708;50.570;8.532;2023-05-10T12:39:42;14.90;99.90
23081;DHT22;11708;50.570;8.532;2023-05-10T12:42:09;15.20;99.90
23081;DHT22;11708;50.570;8.532;2023-05-10T12:44:34;15.30;99.90
23081;DHT22;11708;50.570;8.532;2023-05-10T12:47:00;15.50;99.90
23081;DHT22;11708;50.570;8.532;2023-05-10T12:49:25;15.60;99.90
23081;DHT22;11708;50.570;8.532;2023-05-10T12:51:51;15.60;99.90
23081;DHT22;11708;50.570;8.532;2023-05-10T12:54:16;15.90;99.90
23081;DHT22;11708;50.570;8.532;2023-05-10T12:56:43;16.20;99.90
23081;DHT22;11708;50.570;8.532;2023-05-10T12:59:08;16.40;99.90
23081;DHT22;11708;50.570;8.532;2023-05-10T13:01:34;16.60;99.90
23081;DHT22;11708;50.570;8.532;2023-05-10T13:03:59;16.80;99.90
23081;DHT22;11708;50.570;8.532;2023-05-10T13:06:25;16.80;99.90
23081;DHT22;11708;50.570;8.532;2023-05-10T13:08:51;16.80;99.90
23081;DHT22;11708;50.570;8.532;2023-05-10T13:11:17;16.70;99.90
23081;DHT22;11708;50.570;8.532;2023-05-10T13:13:45;16.60;99.90
23081;DHT22;11708;50.570;8.532;2023-05-10T13:16:10;16.50;99.90
23081;DHT22;11708;50.570;8.532;2023-05-10T13:18:36;16.30;99.90
23081;DHT22;11708;50.570;8.532;2023-05-10T13:21:01;16.20;99.90
23081;DHT22;11708;50.570;8.532;2023-05-10T13:23:29;16.00;99.90
23081;DHT22;11708;50.570;8.532;2023-05-10T13:25:54;16.00;99.90
23081;DHT22;11708;50.570;8.532;2023-05-10T13:28:20;15.90;99.90
23081;DHT22;11708;50.570;8.532;2023-05-10T13:30:45;15.80;99.90
23081;DHT22;11708;50.570;8.532;2023-05-10T13:33:11;15.80;99.90
23081;DHT22;11708;50.570;8.532;2023-05-10T13:35:37;15.80;99.90
23081;DHT22;11708;50.570;8.532;2023-05-10T13:38:02;15.90;99.90
23081;DHT22;11708;50.570;8.532;2023-05-10T13:40:28;16.00;99.90
23081;DHT22;11708;50.570;8.532;2023-05-10T13:42:53;16.10;99.90
23081;DHT22;11708;50.570;8.532;2023-05-10T13:45:19;16.50;99.90
23081;DHT22;11708;50.570;8.532;2023-05-10T13:47:44;16.30;99.90
23081;DHT22;11708;50.570;8.532;2023-05-10T13:50:10;16.40;99.90
23081;DHT22;11708;50.570;8.532;2023-05-10T13:52:35;16.80;99.90
23081;DHT22;11708;50.570;8.532;2023-05-10T13:55:01;17.10;99.90
23081;DHT22;11708;50.570;8.532;2023-05-10T13:57:27;17.50;99.90
23081;DHT22;11708;50.570;8.532;2023-05-10T13:59:54;17.80;99.90
23081;DHT22;11708;50.570;8.532;2023-05-10T14:02:19;17.90;99.90
23081;DHT22;11708;50.570;8.532;2023-05-10T14:04:45;18.00;99.90
23081;DHT22;11708;50.570;8.532;2023-05-10T14:07:11;18.10;99.90
23081;DHT22;11708;50.570;8.532;2023-05-10T14:09:36;18.30;99.90
23081;DHT22;11708;50.570;8.532;2023-05-10T14:12:02;18.50;99.90
23081;DHT22;11708;50.570;8.532;2023-05-10T14:14:27;18.60;99.90
23081;DHT22;11708;50.570;8.532;2023-05-10T14:16:54;18.80;99.90
23081;DHT22;11708;50.570;8.532;2023-05-10T14:19:20;18.80;99.90
23081;DHT22;11708;50.570;8.532;2023-05-10T14:21:45;19.00;99.90
23081;DHT22;11708;50.570;8.532;2023-05-10T14:24:11;19.20;99.90
23081;DHT22;11708;50.570;8.532;2023-05-10T14:26:37;19.40;99.90
23081;DHT22;11708;50.570;8.532;2023-05-10T14:29:02;19.70;99.90
23081;DHT22;11708;50.570;8.532;2023-05-10T14:31:28;19.80;99.90
23081;DHT22;11708;50.570;8.532;2023-05-10T14:33:55;19.90;99.90
23081;DHT22;11708;50.570;8.532;2023-05-10T14:36:21;19.90;99.90
23081;DHT22;11708;50.570;8.532;2023-05-10T14:38:46;20.00;99.90
23081;DHT22;11708;50.570;8.532;2023-05-10T14:41:12;20.10;99.90
23081;DHT22;11708;50.570;8.532;2023-05-10T14:43:40;19.90;99.90
23081;DHT22;11708;50.570;8.532;2023-05-10T14:46:06;19.80;99.90
23081;DHT22;11708;50.570;8.532;2023-05-10T14:48:32;19.40;99.90
23081;DHT22;11708;50.570;8.532;2023-05-10T14:50:57;19.10;99.90
23081;DHT22;11708;50.570;8.532;2023-05-10T14:53:23;18.50;99.90
23081;DHT22;11708;50.570;8.532;2023-05-10T14:55:48;17.90;99.90
23081;DHT22;11708;50.570;8.532;2023-05-10T14:58:14;17.50;99.90
23081;DHT22;11708;50.570;8.532;2023-05-10T15:00:40;17.00;99.90
23081;DHT22;11708;50.570;8.532;2023-05-10T15:03:05;16.60;99.90
23081;DHT22;11708;50.570;8.532;2023-05-10T15:05:31;16.30;99.90
23081;DHT22;11708;50.570;8.532;2023-05-10T15:07:56;16.20;99.90
23081;DHT22;11708;50.570;8.532;2023-05-10T15:10:22;16.00;99.90
23081;DHT22;11708;50.570;8.532;2023-05-10T15:12:47;16.00;99.90
23081;DHT22;11708;50.570;8.532;2023-05-10T15:15:13;15.80;99.90
23081;DHT22;11708;50.570;8.532;2023-05-10T15:17:38;15.90;99.90
23081;DHT22;11708;50.570;8.532;2023-05-10T15:20:04;15.90;99.90
23081;DHT22;11708;50.570;8.532;2023-05-10T15:22:31;16.00;99.90
23081;DHT22;11708;50.570;8.532;2023-05-10T15:24:57;16.00;99.90
23081;DHT22;11708;50.570;8.532;2023-05-10T15:27:24;16.00;99.90
23081;DHT22;11708;50.570;8.532;2023-05-10T15:29:49;16.00;99.90
23081;DHT22;11708;50.570;8.532;2023-05-10T15:32:15;16.20;99.90
23081;DHT22;11708;50.570;8.532;2023-05-10T15:34:41;16.30;99.90
23081;DHT22;11708;50.570;8.532;2023-05-10T15:37:06;16.40;99.90
23081;DHT22;11708;50.570;8.532;2023-05-10T15:39:33;16.50;99.90
23081;DHT22;11708;50.570;8.532;2023-05-10T15:41:59;16.50;99.90
23081;DHT22;11708;50.570;8.532;2023-05-10T15:44:24;16.70;99.90
23081;DHT22;11708;50.570;8.532;2023-05-10T15:46:50;16.70;99.90
23081;DHT22;11708;50.570;8.532;2023-05-10T15:49:15;16.70;99.90
23081;DHT22;11708;50.570;8.532;2023-05-10T15:51:41;16.80;99.90
23081;DHT22;11708;50.570;8.532;2023-05-10T15:54:06;16.90;99.90
23081;DHT22;11708;50.570;8.532;2023-05-10T15:56:32;17.00;99.90
23081;DHT22;11708;50.570;8.532;2023-05-10T15:58:59;17.00;99.90
23081;DHT22;11708;50.570;8.532;2023-05-10T16:01:24;17.00;99.90
23081;DHT22;11708;50.570;8.532;2023-05-10T16:03:50;17.00;99.90
23081;DHT22;11708;50.570;8.532;2023-05-10T16:06:15;16.90;99.90
23081;DHT22;11708;50.570;8.532;2023-05-10T16:08:41;16.90;99.90